Time;durP1;ratioP1;P1;durP2;ratioP2;P2;SDS_P1;SDS_P2;PMS_P1;PMS_P2;Temp;Humidity;BMP_temperature;BMP_pressure;BME280_temperature;BME280_humidity;BME280_pressure;Samples;Min_cycle;Max_cycle;Signal;HPM_P1;HPM_P2
2022/01/10 00:00:58;;;;;;;34.45;20.27;;;;;;;-0.70;100.00;100987.06;4995752;28;20518;-49
2022/01/10 00:03:24;;;;;;;35.78;18.70;;;;;;;-0.70;100.00;100988.97;4995621;28;20037;-48
2022/01/10 00:05:50;;;;;;;32.60;20.35;;;;;;;-0.70;100.00;100987.06;4996357;28;20057;-48
2022/01/10 00:08:15;;;;;;;36.35;21.73;;;;;;;-0.68;100.00;100986.84;4995349;28;20034;-48
2022/01/10 00:10:42;;;;;;;32.55;19.20;;;;;;;-0.67;100.00;100991.22;4995750;28;20027;-50
2022/01/10 00:13:07;;;;;;;35.53;20.38;;;;;;;-0.69;100.00;100991.44;4995644;28;20036;-53
2022/01/10 00:15:33;;;;;;;35.75;19.35;;;;;;;-0.67;100.00;101002.09;4994126;28;20026;-50
2022/01/10 00:17:59;;;;;;;34.60;20.42;;;;;;;-0.58;100.00;101011.59;4994790;28;20026;-52
2022/01/10 00:20:24;;;;;;;36.28;19.88;;;;;;;-0.49;100.00;101017.53;4994167;28;20034;-49
2022/01/10 00:22:50;;;;;;;33.92;19.40;;;;;;;-0.45;100.00;101012.47;4995554;28;20478;-50
2022/01/10 00:25:19;;;;;;;36.80;20.58;;;;;;;-0.43;100.00;101013.09;4995736;28;20026;-49
2022/01/10 00:27:46;;;;;;;34.65;20.67;;;;;;;-0.42;100.00;101022.91;4994563;28;20502;-50
2022/01/10 00:30:12;;;;;;;34.17;20.83;;;;;;;-0.44;100.00;101022.28;4994928;28;20026;-51
2022/01/10 00:32:41;;;;;;;32.85;20.83;;;;;;;-0.51;100.00;101011.50;4995570;28;20113;-47
2022/01/10 00:35:07;;;;;;;38.03;20.63;;;;;;;-0.47;100.00;101021.69;4995507;28;20105;-50
2022/01/10 00:37:34;;;;;;;37.17;21.48;;;;;;;-0.45;100.00;101012.47;4994930;28;20122;-49
2022/01/10 00:39:59;;;;;;;34.20;20.20;;;;;;;-0.42;100.00;101028.34;4994137;28;20022;-49
2022/01/10 00:42:25;;;;;;;35.45;20.77;;;;;;;-0.41;100.00;101030.00;4994694;28;20558;-50
2022/01/10 00:44:52;;;;;;;34.90;20.63;;;;;;;-0.46;100.00;101025.25;4995467;28;20498;-49
2022/01/10 00:47:18;;;;;;;37.42;22.38;;;;;;;-0.50;100.00;101032.19;4995026;28;20085;-50
2022/01/10 00:49:44;;;;;;;36.95;21.05;;;;;;;-0.57;100.00;101026.84;4995109;28;20037;-53
2022/01/10 00:52:09;;;;;;;34.58;20.95;;;;;;;-0.61;100.00;101036.50;4995375;28;20413;-50
2022/01/10 00:54:35;;;;;;;38.70;22.08;;;;;;;-0.68;100.00;101044.72;4994515;28;20134;-51
2022/01/10 00:57:00;;;;;;;37.95;21.88;;;;;;;-0.71;100.00;101045.16;4994958;28;20034;-50
2022/01/10 00:59:25;;;;;;;36.72;23.15;;;;;;;-0.75;100.00;101048.56;4994664;28;20030;-49
2022/01/10 01:01:51;;;;;;;38.67;22.77;;;;;;;-0.79;100.00;101061.75;4994800;28;20033;-50
2022/01/10 01:04:17;;;;;;;33.63;21.63;;;;;;;-0.82;100.00;101067.66;4994254;28;20101;-49
2022/01/10 01:06:43;;;;;;;37.38;22.40;;;;;;;-0.88;100.00;101066.69;4994607;28;20134;-51
2022/01/10 01:09:12;;;;;;;34.63;21.42;;;;;;;-0.91;100.00;101080.69;4993902;28;20022;-50
2022/01/10 01:14:11;;;;;;;34.50;20.55;;;;;;;-1.00;100.00;101095.63;4994949;28;20478;-49
2022/01/10 01:19:52;;;;;;;37.38;20.27;;;;;;;-1.03;100.00;101104.19;4994243;28;20105;-48
2022/01/10 01:24:39;;;;;;;32.83;21.55;;;;;;;-1.11;100.00;101092.56;4994218;28;20104;-47
2022/01/10 01:27:04;;;;;;;35.40;20.83;;;;;;;-1.14;100.00;101103.91;4994225;28;20201;-48
2022/01/10 01:29:30;;;;;;;34.30;20.73;;;;;;;-1.18;100.00;101108.09;4993614;28;20036;-47
2022/01/10 01:31:57;;;;;;;32.28;20.33;;;;;;;-1.22;100.00;101115.00;4994031;28;20031;-48
2022/01/10 01:34:24;;;;;;;37.22;21.92;;;;;;;-1.23;100.00;101131.53;4993908;28;20034;-48
2022/01/10 01:36:53;;;;;;;35.92;21.73;;;;;;;-1.28;100.00;101122.16;4994870;28;20022;-48
2022/01/10 01:39:22;;;;;;;35.58;21.30;;;;;;;-1.36;100.00;101125.13;4994332;28;20030;-51
2022/01/10 01:41:50;;;;;;;36.75;21.42;;;;;;;-1.38;100.00;101120.97;4993866;28;20057;-46
2022/01/10 01:44:16;;;;;;;35.50;20.73;;;;;;;-1.33;100.00;101145.59;4994150;28;20019;-47
2022/01/10 01:46:42;;;;;;;35.85;21.02;;;;;;;-1.35;100.00;101150.41;4993638;28;20117;-47
2022/01/10 01:49:08;;;;;;;34.65;21.25;;;;;;;-1.37;100.00;101149.78;4993616;28;20038;-47
2022/01/10 01:51:34;;;;;;;35.20;20.35;;;;;;;-1.38;100.00;101154.41;4993493;28;20105;-50
2022/01/10 01:54:00;;;;;;;36.78;21.23;;;;;;;-1.42;100.00;101145.00;4994072;28;20534;-48
2022/01/10 01:56:25;;;;;;;35.47;20.65;;;;;;;-1.46;100.00;101152.75;4993863;28;20030;-52
2022/01/10 01:58:55;;;;;;;36.45;19.90;;;;;;;-1.49;100.00;101155.91;4993840;28;20022;-52
2022/01/10 02:01:22;;;;;;;33.35;19.63;;;;;;;-1.47;100.00;101167.38;4994018;28;20057;-48
2022/01/10 02:03:48;;;;;;;36.08;19.88;;;;;;;-1.47;100.00;101180.13;4993248;28;20022;-48
2022/01/10 02:06:14;;;;;;;33.88;20.67;;;;;;;-1.47;100.00;101175.53;4994033;28;20450;-52
2022/01/10 02:08:41;;;;;;;36.17;22.67;;;;;;;-1.46;100.00;101173.63;4993564;28;20077;-48
2022/01/10 02:11:08;;;;;;;39.60;22.65;;;;;;;-1.43;100.00;101171.34;4993521;28;20044;-48
2022/01/10 02:13:35;;;;;;;38.72;21.67;;;;;;;-1.38;100.00;101186.13;4993264;28;20049;-50
2022/01/10 02:16:03;;;;;;;36.22;21.38;;;;;;;-1.31;100.00;101176.03;4992382;28;20109;-53
2022/01/10 02:18:28;;;;;;;40.60;21.90;;;;;;;-1.27;100.00;101177.28;4993009;28;20024;-52
2022/01/10 02:20:57;;;;;;;37.67;21.80;;;;;;;-1.23;100.00;101183.09;4993380;28;20027;-52
2022/01/10 02:23:23;;;;;;;37.97;22.25;;;;;;;-1.22;100.00;101187.47;4993922;28;20034;-50
2022/01/10 02:25:48;;;;;;;38.40;22.65;;;;;;;-1.24;100.00;101193.13;4993678;28;20433;-48
2022/01/10 02:28:14;;;;;;;36.22;21.65;;;;;;;-1.24;100.00;101195.84;4993096;28;20030;-48
2022/01/10 02:30:40;;;;;;;36.38;21.50;;;;;;;-1.26;100.00;101195.25;4993269;28;20114;-50
2022/01/10 02:33:06;;;;;;;36.72;21.98;;;;;;;-1.27;100.00;101196.28;4992793;28;20077;-47
2022/01/10 02:35:39;;;;;;;38.15;21.55;;;;;;;-1.27;100.00;101210.66;4993274;28;20018;-48
2022/01/10 02:38:05;;;;;;;36.70;20.95;;;;;;;-1.20;100.00;101207.09;4993013;28;20481;-51
2022/01/10 02:40:32;;;;;;;37.83;22.33;;;;;;;-1.21;100.00;101219.84;4993472;28;20113;-48
2022/01/10 02:42:58;;;;;;;37.50;21.17;;;;;;;-1.22;100.00;101230.91;4993370;28;20026;-49
2022/01/10 02:45:25;;;;;;;37.20;20.77;;;;;;;-1.27;100.00;101224.25;4993565;28;20042;-49
2022/01/10 02:47:50;;;;;;;36.15;20.50;;;;;;;-1.27;100.00;101224.25;4992121;28;20026;-49
2022/01/10 02:50:17;;;;;;;36.88;21.40;;;;;;;-1.26;100.00;101230.53;4993074;28;20037;-48
2022/01/10 02:52:44;;;;;;;38.28;24.10;;;;;;;-1.27;100.00;101242.44;4992948;28;20033;-51
2022/01/10 02:55:10;;;;;;;39.17;22.13;;;;;;;-1.24;100.00;101239.28;4993101;28;20109;-48
2022/01/10 02:57:36;;;;;;;36.55;22.17;;;;;;;-1.22;100.00;101252.63;4993024;28;20026;-51
2022/01/10 03:00:11;;;;;;;37.33;20.80;;;;;;;-1.27;100.00;101245.16;4993521;28;20026;-52
2022/01/10 03:02:37;;;;;;;39.83;21.80;;;;;;;-1.21;100.00;101251.59;4992730;28;20066;-48
2022/01/10 03:05:04;;;;;;;35.10;20.60;;;;;;;-1.23;100.00;101254.53;4995357;28;20061;-50
2022/01/10 03:07:29;;;;;;;38.42;21.50;;;;;;;-1.20;100.00;101264.13;4995576;28;20041;-48
2022/01/10 03:09:55;;;;;;;36.40;21.00;;;;;;;-1.18;100.00;101267.47;4996528;28;20030;-46
2022/01/10 03:12:21;;;;;;;37.95;21.15;;;;;;;-1.13;100.00;101286.63;4996591;28;20022;-48
2022/01/10 03:14:46;;;;;;;37.65;21.98;;;;;;;-1.03;100.00;101286.16;4996156;28;20449;-49
2022/01/10 03:17:13;;;;;;;41.15;25.63;;;;;;;-1.01;100.00;101281.34;4996352;28;20026;-48
2022/01/10 03:19:40;;;;;;;39.15;22.25;;;;;;;-1.01;100.00;101284.06;4995997;28;20450;-47
2022/01/10 03:22:06;;;;;;;36.50;22.40;;;;;;;-1.00;100.00;101292.00;4996543;28;20041;-51
2022/01/10 03:24:31;;;;;;;38.28;22.10;;;;;;;-0.93;100.00;101297.38;4996084;28;20096;-48
2022/01/10 03:26:57;;;;;;;37.78;22.77;;;;;;;-0.89;100.00;101284.19;4996673;28;20529;-50
2022/01/10 03:29:22;;;;;;;38.38;23.60;;;;;;;-0.83;100.00;101294.19;4996471;28;20601;-49
2022/01/10 03:31:47;;;;;;;40.10;22.42;;;;;;;-0.79;100.00;101306.28;4996723;28;20045;-52
2022/01/10 03:34:13;;;;;;;40.13;23.08;;;;;;;-0.80;100.00;101300.03;4994791;28;20033;-49
2022/01/10 03:36:39;;;;;;;38.70;21.80;;;;;;;-0.76;100.00;101302.31;4996614;28;20040;-52
2022/01/10 03:39:05;;;;;;;36.70;22.40;;;;;;;-0.77;100.00;101304.19;4996356;28;20030;-48
2022/01/10 03:41:30;;;;;;;39.65;21.55;;;;;;;-0.75;100.00;101317.53;4996768;28;20120;-50
2022/01/10 03:43:55;;;;;;;40.35;23.40;;;;;;;-0.75;100.00;101317.53;4995364;28;20066;-51
2022/01/10 03:46:21;;;;;;;35.15;22.45;;;;;;;-0.75;100.00;101333.84;4996536;28;20061;-49
2022/01/10 03:48:46;;;;;;;40.75;22.55;;;;;;;-0.77;100.00;101338.69;4996598;28;20038;-49
2022/01/10 03:51:12;;;;;;;38.55;22.60;;;;;;;-0.76;100.00;101340.34;4995887;28;20389;-50
2022/01/10 03:53:37;;;;;;;42.95;23.38;;;;;;;-0.75;100.00;101340.13;4996118;28;20038;-51
2022/01/10 03:56:03;;;;;;;37.10;22.48;;;;;;;-0.76;100.00;101343.06;4996205;28;20018;-50
2022/01/10 03:58:29;;;;;;;37.22;22.90;;;;;;;-0.77;100.00;101355.78;4996569;28;20041;-54
2022/01/10 04:00:54;;;;;;;38.97;22.45;;;;;;;-0.81;100.00;101352.69;4996249;28;20030;-50
2022/01/10 04:03:20;;;;;;;39.25;22.95;;;;;;;-0.84;100.00;101363.16;4996157;28;20037;-57
2022/01/10 04:05:45;;;;;;;38.92;21.75;;;;;;;-0.85;100.00;101364.22;4995191;28;20065;-48
2022/01/10 04:08:12;;;;;;;42.90;23.70;;;;;;;-0.84;100.00;101365.88;4994167;28;20438;-51
2022/01/10 04:10:38;;;;;;;37.00;21.83;;;;;;;-0.85;100.00;101367.75;4996377;28;20484;-51
2022/01/10 04:13:03;;;;;;;37.60;22.13;;;;;;;-0.85;100.00;101365.03;4995713;28;20109;-54
2022/01/10 04:15:28;;;;;;;40.90;23.00;;;;;;;-0.83;100.00;101364.81;4995794;28;20124;-52
2022/01/10 04:17:56;;;;;;;42.33;23.83;;;;;;;-0.81;100.00;101365.44;4995777;28;20031;-49
2022/01/10 04:20:23;;;;;;;38.03;22.27;;;;;;;-0.82;100.00;101367.31;4995344;28;20457;-53
2022/01/10 04:22:49;;;;;;;38.78;22.88;;;;;;;-0.83;100.00;101378.41;4995425;28;20474;-52
2022/01/10 04:25:14;;;;;;;38.00;22.50;;;;;;;-0.79;100.00;101390.50;4995704;28;20041;-53
2022/01/10 04:27:40;;;;;;;41.20;23.05;;;;;;;-0.79;100.00;101388.63;4996271;28;20023;-52
2022/01/10 04:30:05;;;;;;;42.60;23.23;;;;;;;-0.76;100.00;101392.78;4995631;28;20081;-49
2022/01/10 04:32:32;;;;;;;41.47;24.50;;;;;;;-0.74;100.00;101398.84;4995196;28;20477;-46
2022/01/10 04:34:58;;;;;;;43.88;25.23;;;;;;;-0.71;100.00;101406.53;4995284;28;20026;-48
2022/01/10 04:37:24;;;;;;;41.35;24.08;;;;;;;-0.69;100.00;101403.63;4995134;28;20022;-49
2022/01/10 04:39:49;;;;;;;41.45;25.67;;;;;;;-0.71;100.00;101414.69;4995105;28;20035;-51
2022/01/10 04:42:14;;;;;;;40.13;23.00;;;;;;;-0.69;100.00;101409.88;4995196;28;20026;-48
2022/01/10 04:44:41;;;;;;;41.97;23.75;;;;;;;-0.64;100.00;101420.09;4995205;28;20073;-47
2022/01/10 04:47:06;;;;;;;41.00;23.52;;;;;;;-0.62;100.00;101428.88;4995735;28;20140;-49
2022/01/10 04:49:45;;;;;;;43.75;24.02;;;;;;;-0.58;100.00;101437.44;4995247;28;20113;-50
2022/01/10 04:52:10;;;;;;;40.47;21.75;;;;;;;-0.56;100.00;101435.34;4995563;28;20054;-48
2022/01/10 04:54:36;;;;;;;37.92;23.23;;;;;;;-0.55;100.00;101445.97;4993816;28;20058;-47
2022/01/10 04:57:01;;;;;;;39.45;22.17;;;;;;;-0.51;100.00;101455.38;4994219;28;20389;-50
2022/01/10 04:59:26;;;;;;;42.00;23.10;;;;;;;-0.47;100.00;101461.22;4994085;28;20038;-48
2022/01/10 05:01:52;;;;;;;40.92;24.02;;;;;;;-0.46;100.00;101473.75;4992952;28;20034;-48
2022/01/10 05:04:17;;;;;;;40.92;22.73;;;;;;;-0.48;100.00;101479.41;4993768;28;20370;-49
2022/01/10 05:06:42;;;;;;;41.58;24.40;;;;;;;-0.45;100.00;101482.72;4993564;28;20089;-51
2022/01/10 05:09:08;;;;;;;40.13;24.50;;;;;;;-0.45;100.00;101499.03;4993990;28;20030;-48
2022/01/10 05:11:35;;;;;;;42.33;23.92;;;;;;;-0.44;100.00;101500.72;4993935;28;20478;-47
2022/01/10 05:14:01;;;;;;;40.78;24.13;;;;;;;-0.42;100.00;101494.00;4993961;28;20544;-48
2022/01/10 05:16:26;;;;;;;38.00;21.52;;;;;;;-0.40;100.00;101491.09;4993508;28;20038;-49
2022/01/10 05:18:51;;;;;;;41.47;22.50;;;;;;;-0.40;100.00;101507.41;4994136;28;20034;-48
2022/01/10 05:21:17;;;;;;;38.50;22.25;;;;;;;-0.38;100.00;101499.88;4993984;28;20101;-48
2022/01/10 05:23:43;;;;;;;45.35;28.35;;;;;;;-0.36;100.00;101497.75;4993616;28;20386;-51
2022/01/10 05:26:08;;;;;;;38.35;23.98;;;;;;;-0.37;100.00;101518.66;4992674;28;20034;-48
2022/01/10 05:28:33;;;;;;;40.85;24.90;;;;;;;-0.37;100.00;101515.09;4993222;28;20034;-50
2022/01/10 05:31:01;;;;;;;38.83;23.17;;;;;;;-0.34;100.00;101514.69;4993631;28;20477;-48
2022/01/10 05:33:27;;;;;;;39.42;23.55;;;;;;;-0.37;100.00;101521.38;4993528;28;20511;-49
2022/01/10 05:35:52;;;;;;;41.40;24.55;;;;;;;-0.38;100.00;101524.34;4993245;28;20085;-48
2022/01/10 05:38:17;;;;;;;39.60;24.02;;;;;;;-0.41;100.00;101532.91;4993650;28;20367;-48
2022/01/10 05:40:43;;;;;;;43.17;26.02;;;;;;;-0.40;100.00;101545.47;4993540;28;20065;-49
2022/01/10 05:43:08;;;;;;;39.30;24.23;;;;;;;-0.41;100.00;101554.66;4992870;28;20026;-49
2022/01/10 05:45:34;;;;;;;38.42;23.33;;;;;;;-0.41;100.00;101555.47;4993183;28;20026;-47
2022/01/10 05:48:07;;;;;;;40.85;23.50;;;;;;;-0.41;100.00;101566.34;4993819;28;20053;-49
2022/01/10 05:50:35;;;;;;;42.15;23.35;;;;;;;-0.41;100.00;101563.63;4993223;28;20038;-51
2022/01/10 05:53:01;;;;;;;39.25;23.10;;;;;;;-0.44;100.00;101574.97;4993444;28;20018;-50
2022/01/10 05:55:27;;;;;;;44.08;22.88;;;;;;;-0.44;100.00;101579.53;4957585;28;1009666;-48
2022/01/10 05:57:52;;;;;;;38.60;23.42;;;;;;;-0.45;100.00;101588.75;4993486;28;20089;-48
2022/01/10 06:00:18;;;;;;;37.88;23.17;;;;;;;-0.48;100.00;101576.44;4993885;28;20065;-48
2022/01/10 06:02:43;;;;;;;42.55;24.25;;;;;;;-0.49;100.00;101574.75;4992996;28;20382;-52
2022/01/10 06:05:09;;;;;;;37.78;23.80;;;;;;;-0.43;100.00;101581.22;4993349;28;20018;-51
2022/01/10 06:07:36;;;;;;;37.50;23.30;;;;;;;-0.41;100.00;101582.66;4993831;28;20486;-49
2022/01/10 06:10:04;;;;;;;38.15;23.10;;;;;;;-0.42;100.00;101566.59;4993960;28;20101;-50
2022/01/10 06:12:29;;;;;;;43.47;25.60;;;;;;;-0.42;100.00;101574.75;4993345;28;20037;-48
2022/01/10 06:14:55;;;;;;;38.22;24.42;;;;;;;-0.39;100.00;101582.47;4993348;28;20023;-50
2022/01/10 06:17:20;;;;;;;38.33;22.85;;;;;;;-0.38;100.00;101592.31;4993047;28;20022;-50
2022/01/10 06:19:45;;;;;;;42.60;24.30;;;;;;;-0.38;100.00;101598.56;4993556;28;20030;-49
2022/01/10 06:22:10;;;;;;;40.75;23.13;;;;;;;-0.36;100.00;101609.22;4993873;28;20131;-49
2022/01/10 06:24:36;;;;;;;46.30;26.60;;;;;;;-0.37;100.00;101612.97;4993994;28;20045;-48
2022/01/10 06:27:01;;;;;;;42.30;22.95;;;;;;;-0.39;100.00;101623.25;4993440;28;20547;-49
2022/01/10 06:29:26;;;;;;;39.83;23.58;;;;;;;-0.37;100.00;101632.00;4993499;28;20035;-49
2022/01/10 06:31:51;;;;;;;36.97;21.92;;;;;;;-0.39;100.00;101621.34;4982102;28;20039;-49
2022/01/10 06:34:18;;;;;;;38.28;22.58;;;;;;;-0.33;100.00;101634.09;4972165;28;20466;-50
2022/01/10 06:36:45;;;;;;;34.58;22.17;;;;;;;-0.34;100.00;101634.31;4971914;28;20039;-50
2022/01/10 06:39:10;;;;;;;42.20;23.88;;;;;;;-0.36;100.00;101636.41;4971399;28;20072;-53
2022/01/10 06:41:36;;;;;;;38.75;24.13;;;;;;;-0.36;100.00;101650.84;4971985;28;20434;-50
2022/01/10 06:44:01;;;;;;;39.50;23.10;;;;;;;-0.37;100.00;101661.91;4972105;28;20043;-49
2022/01/10 06:46:26;;;;;;;40.15;24.23;;;;;;;-0.39;100.00;101672.19;4972126;28;20442;-52
2022/01/10 06:48:52;;;;;;;39.80;23.80;;;;;;;-0.42;100.00;101668.00;4972070;28;20027;-50
2022/01/10 06:51:17;;;;;;;41.08;23.45;;;;;;;-0.39;100.00;101664.84;4972024;28;20034;-50
2022/01/10 06:53:42;;;;;;;39.50;23.30;;;;;;;-0.37;100.00;101661.91;4971862;28;20030;-49
2022/01/10 06:56:08;;;;;;;42.47;23.23;;;;;;;-0.34;100.00;101664.22;4972105;28;20494;-49
2022/01/10 06:58:33;;;;;;;42.25;23.08;;;;;;;-0.33;100.00;101680.31;4971652;28;20033;-51
2022/01/10 07:00:59;;;;;;;40.15;24.23;;;;;;;-0.27;100.00;101675.91;4971259;28;20174;-49
2022/01/10 07:03:24;;;;;;;42.60;23.75;;;;;;;-0.26;100.00;101682.19;4971928;28;20517;-53
2022/01/10 07:05:49;;;;;;;42.75;24.52;;;;;;;-0.23;100.00;101698.06;4969309;28;20027;-53
2022/01/10 07:08:15;;;;;;;39.97;23.35;;;;;;;-0.22;100.00;101700.59;4970548;28;20173;-53
2022/01/10 07:10:40;;;;;;;43.08;23.38;;;;;;;-0.23;100.00;101709.81;4971796;28;20422;-48
2022/01/10 07:13:05;;;;;;;39.40;23.65;;;;;;;-0.22;100.00;101713.34;4971755;28;20071;-48
2022/01/10 07:15:30;;;;;;;38.38;23.38;;;;;;;-0.21;100.00;101715.88;4970645;28;20513;-50
2022/01/10 07:17:56;;;;;;;37.50;23.20;;;;;;;-0.22;100.00;101725.06;4970959;28;20022;-48
2022/01/10 07:20:21;;;;;;;39.15;23.30;;;;;;;-0.21;100.00;101728.63;4971240;28;20432;-51
2022/01/10 07:22:47;;;;;;;39.55;23.80;;;;;;;-0.18;100.00;101741.81;4971266;28;20030;-49
2022/01/10 07:25:12;;;;;;;39.38;22.17;;;;;;;-0.16;100.00;101743.25;4971671;28;20117;-47
2022/01/10 07:27:38;;;;;;;39.05;23.77;;;;;;;-0.19;100.00;101745.56;4970338;28;20367;-50
2022/01/10 07:30:04;;;;;;;43.92;25.02;;;;;;;-0.20;100.00;101741.16;4970303;28;20100;-48
2022/01/10 07:32:30;;;;;;;39.85;24.95;;;;;;;-0.20;100.00;101752.91;4971865;28;20094;-49
2022/01/10 07:34:59;;;;;;;38.03;23.58;;;;;;;-0.23;100.00;101756.03;4971535;28;20456;-49
2022/01/10 07:37:24;;;;;;;37.40;23.45;;;;;;;-0.24;100.00;101761.69;4971428;28;20031;-52
2022/01/10 07:39:49;;;;;;;41.45;23.90;;;;;;;-0.24;100.00;101769.84;4971560;28;20038;-49
2022/01/10 07:42:15;;;;;;;41.63;27.50;;;;;;;-0.28;100.00;101774.84;4971530;28;20431;-49
2022/01/10 07:44:40;;;;;;;40.47;23.65;;;;;;;-0.28;100.00;101774.03;4971559;28;20030;-50
2022/01/10 07:47:07;;;;;;;41.28;24.35;;;;;;;-0.34;100.00;101782.00;4971444;28;20077;-49
2022/01/10 07:49:33;;;;;;;44.75;24.50;;;;;;;-0.37;100.00;101792.44;4972276;28;20026;-49
2022/01/10 07:51:58;;;;;;;38.28;24.95;;;;;;;-0.41;100.00;101802.88;4974932;28;20041;-49
2022/01/10 07:54:24;;;;;;;38.08;24.02;;;;;;;-0.44;100.00;101802.47;4974734;28;20121;-49
2022/01/10 07:56:50;;;;;;;41.60;24.60;;;;;;;-0.48;100.00;101807.50;4973551;28;20471;-50
2022/01/10 07:59:16;;;;;;;42.35;24.40;;;;;;;-0.47;100.00;101810.00;4975009;28;20042;-48
2022/01/10 08:01:41;;;;;;;41.25;24.80;;;;;;;-0.50;100.00;101809.56;4988797;28;20040;-50
2022/01/10 08:04:06;;;;;;;38.78;24.35;;;;;;;-0.52;100.00;101815.22;4992306;28;20035;-49
2022/01/10 08:06:31;;;;;;;44.08;26.10;;;;;;;-0.51;100.00;101832.38;4994074;28;20064;-50
2022/01/10 08:08:57;;;;;;;47.03;26.23;;;;;;;-0.51;100.00;101835.94;4994151;28;20026;-51
2022/01/10 08:11:26;;;;;;;37.05;23.88;;;;;;;-0.47;100.00;101847.22;4994104;28;20030;-49
2022/01/10 08:13:52;;;;;;;41.42;25.60;;;;;;;-0.43;100.00;101845.78;4994358;28;20030;-51
2022/01/10 08:16:17;;;;;;;40.92;24.55;;;;;;;-0.41;100.00;101849.09;4993930;28;20053;-51
2022/01/10 08:18:42;;;;;;;42.42;27.30;;;;;;;-0.41;100.00;101845.56;4993955;28;20038;-50
2022/01/10 08:21:08;;;;;;;43.70;27.15;;;;;;;-0.36;100.00;101860.22;4994031;28;20423;-53
2022/01/10 08:23:33;;;;;;;35.35;23.10;;;;;;;-0.33;100.00;101850.78;4993954;28;20057;-52
2022/01/10 08:25:59;;;;;;;39.38;23.58;;;;;;;-0.33;100.00;101848.91;4993798;28;20035;-53
2022/01/10 08:28:24;;;;;;;41.05;22.95;;;;;;;-0.29;100.00;101865.66;4992526;28;20034;-52
2022/01/10 08:30:49;;;;;;;37.35;21.98;;;;;;;-0.33;100.00;101876.09;4993723;28;20140;-48
2022/01/10 08:33:15;;;;;;;38.50;22.27;;;;;;;-0.27;100.00;101876.31;4993554;28;20058;-50
2022/01/10 08:35:40;;;;;;;38.75;23.52;;;;;;;-0.20;100.00;101888.03;4994627;28;20046;-53
2022/01/10 08:38:06;;;;;;;41.15;22.38;;;;;;;-0.20;100.00;101902.50;4994244;28;20035;-50
2022/01/10 08:40:31;;;;;;;35.10;22.55;;;;;;;-0.21;100.00;101895.38;4994275;28;20030;-50
2022/01/10 08:42:56;;;;;;;38.85;23.15;;;;;;;-0.17;100.00;101909.38;4993897;28;20042;-49
2022/01/10 08:45:22;;;;;;;40.10;23.20;;;;;;;-0.18;100.00;101933.00;4993429;28;20405;-52
2022/01/10 08:47:47;;;;;;;36.92;21.50;;;;;;;-0.15;100.00;101934.50;4993489;28;20029;-49
2022/01/10 08:50:13;;;;;;;38.05;21.77;;;;;;;-0.10;100.00;101940.16;4993223;28;20078;-53
2022/01/10 08:52:40;;;;;;;37.60;22.40;;;;;;;-0.06;100.00;101946.00;4993159;28;20034;-49
2022/01/10 08:55:08;;;;;;;37.80;20.73;;;;;;;-0.01;100.00;101948.97;4993181;28;20082;-48
2022/01/10 08:57:34;;;;;;;38.15;22.48;;;;;;;-0.01;100.00;101947.06;4993157;28;20506;-49
2022/01/10 08:59:59;;;;;;;35.97;21.83;;;;;;;0.06;100.00;101957.09;4993444;28;20105;-49
2022/01/10 09:02:25;;;;;;;40.33;23.05;;;;;;;0.08;100.00;101961.31;4992253;28;20038;-50
2022/01/10 09:04:50;;;;;;;37.25;21.33;;;;;;;0.10;100.00;101971.97;4991399;28;20027;-52
2022/01/10 09:07:15;;;;;;;37.75;22.45;;;;;;;0.12;100.00;101969.91;4993063;28;20080;-50
2022/01/10 09:09:42;;;;;;;34.70;22.98;;;;;;;0.18;100.00;101968.22;4990981;28;20026;-51
2022/01/10 09:12:07;;;;;;;35.63;22.50;;;;;;;0.23;100.00;101990.19;4995419;28;20101;-53
2022/01/10 09:14:33;;;;;;;39.42;22.83;;;;;;;0.25;100.00;101997.09;4995155;28;20073;-51
2022/01/10 09:16:58;;;;;;;36.25;20.65;;;;;;;0.32;100.00;101988.13;4994948;28;20600;-49
2022/01/10 09:19:23;;;;;;;35.38;20.13;;;;;;;0.35;100.00;101988.53;4993660;28;20105;-51
2022/01/10 09:21:49;;;;;;;38.22;23.20;;;;;;;0.42;100.00;101983.91;4994841;28;20492;-49
2022/01/10 09:24:15;;;;;;;39.95;22.92;;;;;;;0.47;100.00;101991.44;4995033;28;20026;-50
2022/01/10 09:26:40;;;;;;;35.67;21.70;;;;;;;0.45;100.00;101988.94;4994722;28;20030;-50
2022/01/10 09:29:06;;;;;;;34.78;20.52;;;;;;;0.44;99.95;101987.28;4994645;28;20105;-51
2022/01/10 09:31:32;;;;;;;36.95;20.70;;;;;;;0.41;99.46;101984.97;4994806;28;20022;-50
2022/01/10 09:33:58;;;;;;;37.58;21.35;;;;;;;0.46;100.00;101987.06;4994744;28;20065;-52
2022/01/10 09:36:26;;;;;;;38.35;22.27;;;;;;;0.47;99.97;101992.28;4994698;28;20027;-50
2022/01/10 09:38:52;;;;;;;32.97;20.20;;;;;;;0.51;99.34;101998.16;4994515;28;20061;-49
2022/01/10 09:41:17;;;;;;;37.80;20.98;;;;;;;0.54;99.80;101997.72;4994669;28;20577;-49
2022/01/10 09:44:12;;;;;;;36.60;21.17;;;;;;;0.60;99.51;101998.78;4994806;28;20053;-49
2022/01/10 09:46:37;;;;;;;38.15;22.55;;;;;;;0.56;99.40;102011.16;4981943;28;20057;-52
2022/01/10 09:49:03;;;;;;;39.17;23.58;;;;;;;0.53;99.22;102006.13;4994400;28;20018;-50
2022/01/10 09:51:29;;;;;;;35.78;20.20;;;;;;;0.54;99.31;102015.97;4992962;28;20022;-53
2022/01/10 09:53:57;;;;;;;35.80;20.08;;;;;;;0.48;98.93;102023.09;4994129;28;20112;-51
2022/01/10 09:56:23;;;;;;;35.72;20.10;;;;;;;0.45;98.40;102021.63;4994370;28;20041;-49
2022/01/10 09:58:50;;;;;;;42.90;24.42;;;;;;;0.47;98.81;102026.84;4994219;28;20023;-49
2022/01/10 10:01:19;;;;;;;41.17;24.95;;;;;;;0.50;99.16;102033.75;4994309;28;20022;-51
2022/01/10 10:03:46;;;;;;;34.70;19.55;;;;;;;0.51;98.76;102040.88;4994218;28;20030;-49
2022/01/10 10:06:11;;;;;;;32.78;17.52;;;;;;;0.56;98.65;102047.38;4994146;28;20030;-51
2022/01/10 10:08:38;;;;;;;32.67;18.75;;;;;;;0.64;98.04;102050.94;4994153;28;20390;-50
2022/01/10 10:11:06;;;;;;;32.33;17.92;;;;;;;0.68;98.07;102058.47;4993962;28;20026;-50
2022/01/10 10:13:44;;;;;;;37.65;20.75;;;;;;;0.69;98.44;102049.25;4993971;28;20023;-49
2022/01/10 10:16:15;;;;;;;33.17;18.63;;;;;;;0.79;97.83;102067.91;4994057;28;20113;-49
2022/01/10 10:18:41;;;;;;;32.92;18.67;;;;;;;0.77;97.74;102065.38;4994127;28;20050;-49
2022/01/10 10:21:12;;;;;;;31.15;17.17;;;;;;;0.77;96.79;102073.56;4994167;28;20030;-50
2022/01/10 10:23:40;;;;;;;34.78;18.75;;;;;;;0.78;97.50;102075.25;4993945;28;20018;-49
2022/01/10 10:26:06;;;;;;;32.63;18.88;;;;;;;0.80;97.24;102079.66;4994011;28;20130;-49
2022/01/10 10:28:35;;;;;;;32.30;18.40;;;;;;;0.85;97.35;102088.88;4994094;28;20145;-49
2022/01/10 10:31:01;;;;;;;29.08;16.20;;;;;;;0.93;97.68;102093.28;4993704;28;20029;-48
2022/01/10 10:33:26;;;;;;;30.77;16.35;;;;;;;1.00;97.50;102088.66;4994101;28;20034;-50
2022/01/10 10:36:07;;;;;;;31.73;17.08;;;;;;;1.14;97.19;102097.66;4993953;28;20433;-54
2022/01/10 10:38:32;;;;;;;33.55;18.83;;;;;;;1.21;96.92;102095.75;4993825;28;20031;-50
2022/01/10 10:41:03;;;;;;;32.05;18.17;;;;;;;1.20;96.21;102093.22;4994003;28;20037;-53
2022/01/10 10:43:33;;;;;;;30.33;16.08;;;;;;;1.27;95.67;102107.69;4993686;28;20030;-53
2022/01/10 10:46:01;;;;;;;33.80;16.42;;;;;;;1.24;96.56;102102.66;4993575;28;20041;-53
2022/01/10 10:48:28;;;;;;;31.10;16.50;;;;;;;1.35;95.77;102115.63;4993625;28;20072;-52
2022/01/10 10:50:59;;;;;;;31.67;16.77;;;;;;;1.34;96.05;102094.88;4994042;28;20034;-53
2022/01/10 10:53:30;;;;;;;35.95;21.50;;;;;;;1.42;96.21;102110.16;4993854;28;20030;-52
2022/01/10 10:56:01;;;;;;;33.83;17.27;;;;;;;1.35;95.69;102107.44;4993592;28;20054;-51
2022/01/10 10:58:27;;;;;;;30.90;15.80;;;;;;;1.47;95.56;102128.63;4993936;28;20038;-52
2022/01/10 11:00:56;;;;;;;30.08;16.60;;;;;;;1.49;95.12;102135.53;4993558;28;20501;-52
2022/01/10 11:03:23;;;;;;;30.92;16.02;;;;;;;1.50;95.56;102134.47;4993603;28;20026;-53
2022/01/10 11:05:49;;;;;;;30.42;16.50;;;;;;;1.53;95.41;102134.06;4993653;28;20110;-52
2022/01/10 11:08:16;;;;;;;30.33;16.13;;;;;;;1.58;95.89;102135.28;4993736;28;20023;-52